Time;durP1;ratioP1;P1;durP2;ratioP2;P2;SDS_P1;SDS_P2;PMS_P1;PMS_P2;Temp;Humidity;BMP_temperature;BMP_pressure;BME280_temperature;BME280_humidity;BME280_pressure;Samples;Min_cycle;Max_cycle;Signal;HPM_P1;HPM_P2
2022/06/10 00:00:19;;;;;;;9.95;7.72;;;13.70;99.90;;;;;;4938436;29;20050;-79
2022/06/10 00:02:45;;;;;;;9.82;7.45;;;13.70;99.90;;;;;;4938410;29;20059;-79
2022/06/10 00:05:17;;;;;;;12.18;8.43;;;13.70;99.90;;;;;;4938639;29;20070;-80
2022/06/10 00:07:43;;;;;;;12.90;7.97;;;13.70;99.90;;;;;;4938432;29;20028;-79
2022/06/10 00:10:11;;;;;;;12.07;8.13;;;13.70;99.90;;;;;;4921266;29;20088;-79
2022/06/10 00:12:37;;;;;;;12.77;7.75;;;13.70;99.90;;;;;;4938245;29;20036;-78
2022/06/10 00:15:04;;;;;;;8.45;7.63;;;13.70;99.90;;;;;;4938119;29;20380;-78
2022/06/10 00:17:30;;;;;;;9.82;8.02;;;13.70;99.90;;;;;;4938197;29;20023;-79
2022/06/10 00:19:56;;;;;;;8.88;7.25;;;13.70;99.90;;;;;;4920759;29;20031;-79
2022/06/10 00:22:22;;;;;;;10.20;7.55;;;13.70;99.90;;;;;;4921095;29;20032;-79
2022/06/10 00:24:51;;;;;;;12.75;7.50;;;13.70;99.90;;;;;;4926978;29;20467;-78
2022/06/10 00:27:19;;;;;;;9.60;7.90;;;13.70;99.90;;;;;;4957508;29;20067;-78
2022/06/10 00:29:45;;;;;;;11.07;7.75;;;13.70;99.90;;;;;;4957285;29;20106;-78
2022/06/10 00:32:11;;;;;;;7.95;7.15;;;13.70;99.90;;;;;;4957170;29;20257;-79
2022/06/10 00:34:37;;;;;;;9.70;8.15;;;13.70;99.90;;;;;;4956996;29;20142;-78
2022/06/10 00:37:08;;;;;;;9.85;7.63;;;13.70;99.90;;;;;;4957004;29;20514;-79
2022/06/10 00:39:34;;;;;;;12.95;8.68;;;13.70;99.90;;;;;;4956992;29;20031;-79
2022/06/10 00:42:01;;;;;;;11.57;8.02;;;13.70;99.90;;;;;;4956184;28;20035;-79
2022/06/10 00:44:48;;;;;;;11.77;9.05;;;13.70;99.90;;;;;;4956891;29;20082;-79
2022/06/10 00:47:17;;;;;;;10.75;9.00;;;13.70;99.90;;;;;;4956917;29;20096;-80
2022/06/10 00:50:04;;;;;;;11.25;8.38;;;13.70;99.90;;;;;;4956851;29;20046;-81
2022/06/10 00:52:36;;;;;;;13.52;8.07;;;13.70;99.90;;;;;;4956860;29;20027;-80
2022/06/10 00:55:05;;;;;;;9.98;7.93;;;13.70;99.90;;;;;;4957017;29;20039;-79
2022/06/10 00:57:35;;;;;;;11.57;8.27;;;13.70;99.90;;;;;;4956905;29;20062;-80
2022/06/10 01:00:05;;;;;;;12.10;8.40;;;13.70;99.90;;;;;;4956614;29;20519;-80
2022/06/10 01:02:32;;;;;;;11.43;8.50;;;13.70;99.90;;;;;;4956335;29;20069;-80
2022/06/10 01:05:00;;;;;;;9.40;8.02;;;13.70;99.90;;;;;;4957279;29;20082;-80
2022/06/10 01:07:35;;;;;;;13.77;8.70;;;13.70;99.90;;;;;;4956168;29;20475;-82
2022/06/10 01:10:04;;;;;;;12.70;7.93;;;13.70;99.90;;;;;;4956700;29;20078;-80
2022/06/10 01:12:48;;;;;;;11.07;7.85;;;13.70;99.90;;;;;;4956385;29;20055;-80
2022/06/10 01:15:56;;;;;;;11.23;8.85;;;13.70;99.90;;;;;;4939022;29;20054;-81
2022/06/10 01:18:37;;;;;;;9.40;7.65;;;13.70;99.90;;;;;;4939140;29;20086;-80
2022/06/10 01:21:21;;;;;;;13.50;9.32;;;13.70;99.90;;;;;;4955993;29;20479;-81
2022/06/10 01:23:49;;;;;;;12.10;8.38;;;13.70;99.90;;;;;;4956365;29;20035;-80
2022/06/10 01:29:42;;;;;;;11.90;8.45;;;13.70;99.90;;;;;;4955907;29;20086;-80
2022/06/10 01:32:28;;;;;;;15.32;9.45;;;13.70;99.90;;;;;;4955045;29;20530;-81
2022/06/10 01:35:09;;;;;;;11.55;8.98;;;13.70;99.90;;;;;;4955935;29;20035;-81
2022/06/10 01:38:02;;;;;;;14.05;9.23;;;13.70;99.90;;;;;;4956112;29;20118;-81
2022/06/10 01:40:39;;;;;;;9.48;8.15;;;13.70;99.90;;;;;;4939063;29;20430;-80
2022/06/10 01:43:21;;;;;;;12.45;9.32;;;13.70;99.90;;;;;;4956231;29;20027;-81
2022/06/10 01:45:56;;;;;;;11.88;8.80;;;13.70;99.90;;;;;;4955912;29;20039;-81
2022/06/10 01:49:10;;;;;;;12.05;9.88;;;13.70;99.90;;;;;;4956132;29;20027;-81
2022/06/10 01:52:02;;;;;;;16.90;9.30;;;13.70;99.90;;;;;;4925853;29;20043;-81
2022/06/10 01:54:44;;;;;;;12.93;8.98;;;13.70;99.90;;;;;;4952661;29;20062;-81
2022/06/10 01:57:16;;;;;;;13.57;9.60;;;13.70;99.90;;;;;;4938769;29;20082;-81
2022/06/10 01:59:52;;;;;;;15.40;8.82;;;13.70;99.90;;;;;;4938518;29;20078;-81
2022/06/10 02:02:23;;;;;;;14.35;8.75;;;13.70;99.90;;;;;;4956297;29;20024;-81
2022/06/10 02:04:54;;;;;;;11.68;8.65;;;13.70;99.90;;;;;;4939093;29;20031;-81
2022/06/10 02:07:30;;;;;;;12.85;9.18;;;13.70;99.90;;;;;;4955837;29;20074;-81
2022/06/10 02:10:13;;;;;;;11.52;9.00;;;13.70;99.90;;;;;;4938991;29;20027;-80
2022/06/10 02:12:47;;;;;;;12.10;8.98;;;13.70;99.90;;;;;;4955761;29;20028;-81
2022/06/10 02:15:45;;;;;;;10.23;8.55;;;13.70;99.90;;;;;;4938430;29;20094;-81
2022/06/10 02:18:15;;;;;;;12.95;9.15;;;13.70;99.90;;;;;;4951445;29;20043;-81
2022/06/10 02:20:47;;;;;;;14.00;8.73;;;13.70;99.90;;;;;;4955545;29;20470;-80
2022/06/10 02:23:16;;;;;;;12.80;8.73;;;13.70;99.90;;;;;;4938360;29;20037;-80
2022/06/10 02:25:48;;;;;;;10.32;8.68;;;13.70;99.90;;;;;;4955072;29;20102;-81
2022/06/10 02:28:21;;;;;;;13.32;8.50;;;13.70;99.90;;;;;;4955050;29;20450;-80
2022/06/10 02:30:52;;;;;;;12.60;9.00;;;13.70;99.90;;;;;;4955256;29;20070;-80
2022/06/10 02:33:17;;;;;;;13.82;8.95;;;13.80;99.90;;;;;;4938030;29;20031;-80
2022/06/10 02:35:50;;;;;;;19.02;9.55;;;13.70;99.90;;;;;;4955364;29;20047;-81
2022/06/10 02:38:22;;;;;;;10.77;8.48;;;13.70;99.90;;;;;;4955460;29;20046;-80
2022/06/10 02:40:57;;;;;;;11.00;8.02;;;13.70;99.90;;;;;;4938108;29;20086;-80
2022/06/10 02:43:28;;;;;;;11.57;8.73;;;13.70;99.90;;;;;;4938047;29;20074;-81
2022/06/10 02:46:18;;;;;;;8.52;7.55;;;13.60;99.90;;;;;;4955508;29;20038;-81
2022/06/10 02:49:07;;;;;;;12.70;8.73;;;13.60;99.90;;;;;;4955494;29;20027;-81
2022/06/10 02:51:34;;;;;;;10.93;7.88;;;13.60;99.90;;;;;;4955315;29;20030;-81
2022/06/10 02:54:03;;;;;;;13.13;8.23;;;13.60;99.90;;;;;;4938105;29;20027;-80
2022/06/10 02:56:29;;;;;;;10.98;7.00;;;13.60;99.90;;;;;;4955256;29;20086;-80
2022/06/10 03:02:16;;;;;;;12.85;8.07;;;13.60;99.90;;;;;;4955063;29;20114;-80
2022/06/10 03:05:16;;;;;;;12.75;8.50;;;13.60;99.90;;;;;;4938662;29;20228;-79
2022/06/10 03:08:02;;;;;;;10.85;7.72;;;13.60;99.90;;;;;;4958978;29;20051;-80
2022/06/10 03:10:34;;;;;;;12.93;7.85;;;13.60;99.90;;;;;;4958579;29;20027;-81
2022/06/10 03:13:21;;;;;;;15.98;8.93;;;13.60;99.90;;;;;;4958771;29;20055;-80
2022/06/10 03:15:55;;;;;;;12.68;8.45;;;13.60;99.90;;;;;;4958441;29;20459;-80
2022/06/10 03:18:41;;;;;;;13.57;7.82;;;13.60;99.90;;;;;;4957386;29;20360;-79
2022/06/10 03:21:31;;;;;;;12.30;7.57;;;13.60;99.90;;;;;;4958135;29;20490;-79
2022/06/10 03:24:00;;;;;;;;;;;13.60;99.90;;;;;;4941851;29;20023;-80
2022/06/10 03:26:32;;;;;;;12.25;7.40;;;13.60;99.90;;;;;;4958257;29;19918;-80
2022/06/10 03:29:05;;;;;;;8.65;7.22;;;13.50;99.90;;;;;;4958317;29;20435;-80
2022/06/10 03:31:41;;;;;;;8.27;7.15;;;13.50;99.90;;;;;;4941170;29;20027;-81
2022/06/10 03:34:22;;;;;;;11.32;7.15;;;13.50;99.90;;;;;;4958333;29;20035;-80
2022/06/10 03:36:49;;;;;;;9.73;7.63;;;13.50;99.90;;;;;;4941702;29;20042;-80
2022/06/10 03:39:15;;;;;;;14.30;8.50;;;13.50;99.90;;;;;;4958337;29;20483;-81
2022/06/10 03:41:53;;;;;;;10.63;8.88;;;13.50;99.90;;;;;;4958589;29;20031;-80
2022/06/10 03:44:20;;;;;;;12.18;8.07;;;13.50;99.90;;;;;;4957730;29;20418;-80
2022/06/10 03:46:48;;;;;;;11.20;8.38;;;13.50;99.90;;;;;;4957937;29;20090;-82
2022/06/10 03:49:18;;;;;;;12.07;7.90;;;13.50;99.90;;;;;;4958001;29;20047;-80
2022/06/10 03:51:44;;;;;;;11.25;7.90;;;13.50;99.90;;;;;;4957922;29;20032;-81
2022/06/10 03:54:15;;;;;;;15.05;8.07;;;13.50;99.90;;;;;;4957658;29;20027;-80
2022/06/10 03:56:41;;;;;;;11.88;7.97;;;13.60;99.90;;;;;;4958065;29;20098;-80
2022/06/10 03:59:06;;;;;;;10.23;7.70;;;13.60;99.90;;;;;;4957860;29;20027;-80
2022/06/10 04:01:32;;;;;;;8.32;7.03;;;13.50;99.90;;;;;;4957427;29;20027;-80
2022/06/10 04:03:59;;;;;;;17.40;7.57;;;13.50;99.90;;;;;;4940328;29;20031;-80
2022/06/10 04:06:25;;;;;;;9.50;7.90;;;13.50;99.90;;;;;;4957540;29;20043;-79
2022/06/10 04:08:51;;;;;;;10.43;7.50;;;13.60;99.90;;;;;;4940361;29;20378;-78
2022/06/10 04:11:17;;;;;;;12.30;8.25;;;13.60;99.90;;;;;;4957283;29;20086;-81
2022/06/10 04:13:44;;;;;;;10.55;7.63;;;13.60;99.90;;;;;;4957633;29;20027;-81
2022/06/10 04:16:10;;;;;;;13.85;8.48;;;13.60;99.90;;;;;;4957386;28;20070;-80
2022/06/10 04:18:37;;;;;;;12.05;8.43;;;13.60;99.90;;;;;;4940081;29;20461;-79
2022/06/10 04:21:03;;;;;;;12.85;8.48;;;13.50;99.90;;;;;;4940005;29;20118;-77
2022/06/10 04:23:29;;;;;;;15.93;8.45;;;13.60;99.90;;;;;;4957009;29;20034;-79
2022/06/10 04:25:55;;;;;;;12.70;7.93;;;13.60;99.90;;;;;;4957821;29;20059;-78
2022/06/10 04:28:20;;;;;;;8.98;7.15;;;13.50;99.90;;;;;;4939951;29;20576;-77
2022/06/10 04:30:49;;;;;;;12.20;7.70;;;13.60;99.90;;;;;;4957137;29;20023;-81
2022/06/10 04:33:15;;;;;;;10.52;8.30;;;13.60;99.90;;;;;;4957207;29;20035;-80
2022/06/10 04:35:43;;;;;;;13.60;8.80;;;13.60;99.90;;;;;;4957125;29;20050;-77
2022/06/10 04:38:11;;;;;;;13.68;8.27;;;13.60;99.90;;;;;;4956919;29;20054;-76
2022/06/10 04:40:37;;;;;;;12.73;8.50;;;13.70;99.90;;;;;;4956568;29;20451;-78
2022/06/10 04:43:06;;;;;;;12.50;8.52;;;13.70;99.90;;;;;;4956682;29;20459;-78
2022/06/10 04:45:38;;;;;;;13.93;8.57;;;13.70;99.90;;;;;;4939582;29;20527;-80
2022/06/10 04:48:04;;;;;;;10.60;7.78;;;13.70;99.90;;;;;;4957196;29;20074;-80
2022/06/10 04:50:31;;;;;;;12.52;8.85;;;13.70;99.90;;;;;;4956812;29;20031;-79
2022/06/10 04:52:57;;;;;;;13.60;9.05;;;13.60;99.90;;;;;;4956641;29;20027;-81
2022/06/10 04:55:25;;;;;;;14.93;9.98;;;13.70;99.90;;;;;;4956545;29;20478;-80
2022/06/10 04:57:53;;;;;;;14.55;9.30;;;13.70;99.90;;;;;;4939347;29;20387;-80
2022/06/10 05:00:22;;;;;;;13.65;9.40;;;13.70;99.90;;;;;;4956745;29;20023;-80
2022/06/10 05:02:48;;;;;;;15.45;9.80;;;13.70;99.90;;;;;;4957010;29;20122;-80
2022/06/10 05:05:14;;;;;;;13.27;10.95;;;13.70;99.90;;;;;;4956774;29;20117;-82
2022/06/10 05:07:40;;;;;;;18.45;10.93;;;13.70;99.90;;;;;;4939219;29;20054;-82
2022/06/10 05:10:07;;;;;;;15.80;10.60;;;13.70;99.90;;;;;;4956528;29;20019;-82
2022/06/10 05:12:32;;;;;;;17.95;10.55;;;13.80;99.90;;;;;;4956438;29;20038;-82
2022/06/10 05:14:58;;;;;;;19.50;11.13;;;13.80;99.90;;;;;;4939017;29;20481;-81
2022/06/10 05:17:24;;;;;;;16.60;10.18;;;13.80;99.90;;;;;;4956352;29;20038;-82
2022/06/10 05:19:49;;;;;;;12.25;9.52;;;13.80;99.90;;;;;;4956681;29;20384;-80
2022/06/10 05:22:16;;;;;;;19.80;11.02;;;13.80;99.90;;;;;;4956252;29;20027;-81
2022/06/10 05:24:42;;;;;;;14.70;9.10;;;13.80;99.90;;;;;;4956162;29;20063;-82
2022/06/10 05:27:08;;;;;;;17.05;10.13;;;13.70;99.90;;;;;;4938631;29;20478;-82
2022/06/10 05:29:34;;;;;;;16.52;10.30;;;13.70;99.90;;;;;;4956066;29;20332;-81
2022/06/10 05:32:00;;;;;;;14.25;9.32;;;13.70;99.90;;;;;;4956056;29;20027;-81
2022/06/10 05:37:14;;;;;;;16.13;9.07;;;13.70;99.90;;;;;;4955887;29;20038;-83
2022/06/10 05:39:40;;;;;;;15.15;9.45;;;13.70;99.90;;;;;;4956350;29;20038;-83
2022/06/10 05:42:06;;;;;;;16.42;10.52;;;13.70;99.90;;;;;;4938710;29;20027;-82
2022/06/10 05:44:34;;;;;;;14.05;10.15;;;13.70;99.90;;;;;;4938747;29;20031;-81
2022/06/10 05:47:03;;;;;;;13.15;8.93;;;13.80;99.90;;;;;;4956088;29;20032;-83
2022/06/10 05:49:29;;;;;;;;;;;13.80;99.90;;;;;;4939501;29;20419;-82
2022/06/10 05:51:55;;;;;;;13.52;8.82;;;13.80;99.90;;;;;;4970659;28;19956;-82
2022/06/10 05:54:22;;;;;;;11.15;9.05;;;13.80;99.90;;;;;;4955729;29;20051;-80
2022/06/10 05:56:47;;;;;;;12.98;9.43;;;13.80;99.90;;;;;;4955957;29;20034;-82
2022/06/10 05:59:18;;;;;;;11.35;8.93;;;13.80;99.90;;;;;;4956131;29;20379;-82
2022/06/10 06:01:44;;;;;;;15.60;9.32;;;13.80;99.90;;;;;;4939005;29;20023;-82
2022/06/10 06:04:10;;;;;;;11.82;9.38;;;13.80;99.90;;;;;;4938765;29;20382;-83
2022/06/10 06:06:36;;;;;;;14.18;9.75;;;13.80;99.90;;;;;;4955566;29;20043;-83
2022/06/10 06:09:02;;;;;;;11.30;9.05;;;13.80;99.90;;;;;;4938551;29;20392;-82
2022/06/10 06:11:28;;;;;;;12.35;9.18;;;13.80;99.90;;;;;;4955724;29;20035;-83
2022/06/10 06:13:54;;;;;;;13.35;8.85;;;13.90;99.90;;;;;;4955701;29;20042;-83
2022/06/10 06:16:21;;;;;;;13.63;10.00;;;13.90;99.90;;;;;;4955738;29;20406;-83
2022/06/10 06:18:48;;;;;;;17.42;9.57;;;13.90;99.90;;;;;;4939002;29;20032;-82
2022/06/10 06:21:14;;;;;;;11.80;8.98;;;13.90;99.90;;;;;;4955541;29;20031;-82
2022/06/10 06:23:39;;;;;;;13.18;8.90;;;13.90;99.90;;;;;;4938014;29;20031;-81
2022/06/10 06:26:10;;;;;;;11.48;7.97;;;13.90;99.90;;;;;;4935076;29;20055;-82
2022/06/10 06:28:36;;;;;;;12.20;8.98;;;14.00;99.90;;;;;;4936543;29;20030;-82
2022/06/10 06:31:01;;;;;;;13.60;8.18;;;14.00;99.90;;;;;;4936178;29;20110;-82
2022/06/10 06:33:27;;;;;;;11.00;8.10;;;14.00;99.90;;;;;;4936245;29;20119;-80
2022/06/10 06:35:54;;;;;;;16.48;8.02;;;14.00;99.90;;;;;;4919253;29;20119;-82
2022/06/10 06:38:22;;;;;;;14.10;10.43;;;14.00;99.90;;;;;;4936329;29;20035;-81
2022/06/10 06:40:47;;;;;;;15.95;8.82;;;14.00;99.90;;;;;;4921629;29;20063;-81
2022/06/10 06:43:13;;;;;;;13.15;9.35;;;14.00;99.90;;;;;;4939523;29;20023;-80
2022/06/10 06:45:43;;;;;;;14.30;10.02;;;14.00;99.90;;;;;;4939709;29;20444;-81
2022/06/10 06:48:10;;;;;;;14.20;9.45;;;14.10;99.90;;;;;;4939661;29;20028;-81
2022/06/10 06:50:42;;;;;;;12.50;9.57;;;14.10;99.90;;;;;;4939703;29;20449;-81
2022/06/10 06:53:07;;;;;;;16.05;9.65;;;14.10;99.90;;;;;;4939713;29;20361;-82
2022/06/10 06:55:35;;;;;;;13.27;9.70;;;14.10;99.90;;;;;;4939914;29;20060;-81
2022/06/10 06:58:00;;;;;;;14.80;9.90;;;14.10;99.90;;;;;;4939402;29;20092;-81
2022/06/10 07:00:27;;;;;;;15.43;9.80;;;14.10;99.90;;;;;;4939876;29;20031;-81
2022/06/10 07:02:53;;;;;;;13.52;9.05;;;14.20;99.90;;;;;;4939678;29;20361;-81
2022/06/10 07:05:18;;;;;;;15.50;10.80;;;14.20;99.90;;;;;;4939708;29;20082;-81
2022/06/10 07:07:44;;;;;;;13.82;10.77;;;14.20;99.90;;;;;;4939556;29;20036;-81
2022/06/10 07:10:14;;;;;;;15.68;10.50;;;14.20;99.90;;;;;;4939372;29;20031;-82
2022/06/10 07:12:40;;;;;;;14.35;10.60;;;14.30;99.90;;;;;;4939367;29;20393;-81
2022/06/10 07:15:07;;;;;;;15.82;9.65;;;14.30;99.90;;;;;;4939309;29;20028;-81
2022/06/10 07:17:33;;;;;;;15.07;10.32;;;14.30;99.90;;;;;;4939253;29;20059;-82
2022/06/10 07:19:59;;;;;;;14.63;10.10;;;14.30;99.90;;;;;;4939477;29;20469;-83
2022/06/10 07:22:26;;;;;;;12.93;10.20;;;14.30;99.90;;;;;;4939561;29;20027;-83
2022/06/10 07:24:53;;;;;;;18.52;10.93;;;14.30;99.90;;;;;;4928148;29;20376;-82
2022/06/10 07:27:19;;;;;;;16.20;10.73;;;14.30;99.90;;;;;;4958371;29;20082;-82
2022/06/10 07:29:45;;;;;;;12.70;10.25;;;14.30;99.90;;;;;;4958548;29;20028;-82
2022/06/10 07:32:11;;;;;;;16.38;10.27;;;14.30;99.90;;;;;;4941094;29;20038;-82
2022/06/10 07:34:36;;;;;;;15.32;11.48;;;14.30;99.90;;;;;;4958288;29;20471;-82
2022/06/10 07:37:02;;;;;;;14.50;10.10;;;14.30;99.90;;;;;;4958416;29;20035;-83
2022/06/10 07:39:28;;;;;;;16.05;11.38;;;14.30;99.90;;;;;;4958194;29;20082;-82
2022/06/10 07:42:02;;;;;;;15.20;10.55;;;14.30;99.90;;;;;;4940847;29;20031;-83
2022/06/10 07:44:30;;;;;;;14.55;11.15;;;14.30;99.90;;;;;;4958205;29;20093;-81
2022/06/10 07:46:58;;;;;;;13.70;11.02;;;14.30;99.90;;;;;;4957928;29;20110;-82
2022/06/10 07:49:24;;;;;;;17.50;10.83;;;14.40;99.90;;;;;;4957866;29;20031;-81
2022/06/10 07:51:50;;;;;;;16.23;11.13;;;14.40;99.90;;;;;;4940485;29;20154;-81
2022/06/10 07:54:16;;;;;;;14.80;11.00;;;14.50;99.90;;;;;;4957734;29;20106;-81
2022/06/10 07:56:41;;;;;;;13.20;10.20;;;14.50;99.90;;;;;;4957639;29;20040;-82
2022/06/10 07:59:09;;;;;;;15.23;10.25;;;14.40;99.90;;;;;;4957816;29;20482;-81
2022/06/10 08:01:35;;;;;;;14.73;10.73;;;14.40;99.90;;;;;;4957874;29;20115;-82
2022/06/10 08:04:00;;;;;;;15.35;10.80;;;14.40;99.90;;;;;;4957697;29;20059;-82
2022/06/10 08:06:28;;;;;;;18.67;11.57;;;14.50;99.90;;;;;;4940412;29;20035;-82
2022/06/10 08:08:55;;;;;;;12.45;10.23;;;14.50;99.90;;;;;;4957290;29;20364;-82
2022/06/10 08:11:21;;;;;;;14.10;10.55;;;14.50;99.90;;;;;;4957855;29;20375;-82
2022/06/10 08:13:47;;;;;;;13.98;9.55;;;14.60;99.90;;;;;;4940315;29;20126;-83
2022/06/10 08:16:14;;;;;;;17.42;10.05;;;14.60;99.90;;;;;;4957559;29;20489;-82
2022/06/10 08:18:40;;;;;;;15.18;10.95;;;14.50;99.90;;;;;;4957470;29;20078;-82
2022/06/10 08:23:52;;;;;;;15.80;9.88;;;14.60;99.90;;;;;;4957461;29;20399;-81
2022/06/10 08:26:19;;;;;;;14.45;9.15;;;14.60;99.90;;;;;;4957498;29;20058;-82
2022/06/10 08:28:46;;;;;;;12.63;8.68;;;14.60;99.90;;;;;;4957207;29;20074;-82
2022/06/10 08:31:12;;;;;;;10.23;8.88;;;14.60;99.90;;;;;;4939914;29;20546;-82
2022/06/10 08:33:38;;;;;;;13.02;9.57;;;14.50;99.90;;;;;;4939992;29;20027;-83
2022/06/10 08:36:05;;;;;;;16.98;9.77;;;14.50;99.90;;;;;;4939846;29;20399;-82
2022/06/10 08:38:32;;;;;;;14.27;10.25;;;14.50;99.90;;;;;;4957056;29;20027;-83
2022/06/10 08:41:04;;;;;;;15.35;10.70;;;14.50;99.90;;;;;;4957372;29;20027;-84
2022/06/10 08:43:50;;;;;;;16.20;11.00;;;14.60;99.90;;;;;;4939786;29;20032;-81
2022/06/10 08:46:41;;;;;;;14.00;10.02;;;14.60;99.90;;;;;;4957351;29;20415;-81
2022/06/10 08:49:28;;;;;;;14.40;10.40;;;14.70;99.90;;;;;;4956949;29;20098;-83
2022/06/10 08:52:09;;;;;;;19.73;11.10;;;14.70;99.90;;;;;;4955774;29;20057;-83
2022/06/10 08:54:34;;;;;;;16.02;11.48;;;14.70;99.90;;;;;;4956559;29;20094;-82
2022/06/10 08:57:08;;;;;;;15.57;11.20;;;14.70;99.90;;;;;;4956858;29;20123;-81
2022/06/10 08:59:38;;;;;;;14.88;11.07;;;14.60;99.90;;;;;;4956712;29;20023;-81
2022/06/10 09:02:23;;;;;;;20.02;11.35;;;14.60;99.90;;;;;;4955868;28;20028;-82
2022/06/10 09:04:58;;;;;;;11.23;9.00;;;14.60;99.90;;;;;;4956860;29;20035;-81
2022/06/10 09:07:50;;;;;;;11.40;8.77;;;14.60;99.90;;;;;;4939088;29;20023;-82
2022/06/10 09:10:28;;;;;;;11.88;9.50;;;14.50;99.90;;;;;;4956625;29;20035;-82
2022/06/10 09:13:11;;;;;;;11.10;8.00;;;14.60;99.90;;;;;;4956865;29;20023;-83
2022/06/10 09:16:25;;;;;;;11.57;8.43;;;14.60;99.90;;;;;;4939214;29;20486;-83
2022/06/10 09:19:03;;;;;;;13.57;9.32;;;14.60;99.90;;;;;;4911778;29;20128;-82
2022/06/10 09:22:01;;;;;;;12.40;8.98;;;14.60;99.90;;;;;;4956445;29;20058;-82
2022/06/10 09:24:46;;;;;;;13.53;9.03;;;14.60;99.90;;;;;;4954901;29;20050;-82
2022/06/10 09:27:23;;;;;;;12.55;9.68;;;14.60;99.90;;;;;;4956248;29;20500;-82
2022/06/10 09:29:49;;;;;;;15.60;9.93;;;14.70;99.90;;;;;;4938804;29;20035;-81
2022/06/10 09:32:53;;;;;;;13.65;10.35;;;14.70;99.90;;;;;;4955899;29;20023;-81
2022/06/10 09:35:38;;;;;;;13.05;9.60;;;14.70;99.90;;;;;;4956251;29;20058;-83
2022/06/10 09:38:14;;;;;;;16.83;11.68;;;14.70;99.90;;;;;;4955939;29;20036;-81
2022/06/10 09:40:58;;;;;;;13.68;10.88;;;14.80;99.90;;;;;;4956069;29;20102;-81
2022/06/10 09:43:43;;;;;;;13.93;10.55;;;14.80;99.90;;;;;;4938780;29;20471;-81
2022/06/10 09:46:36;;;;;;;13.40;10.50;;;14.80;99.90;;;;;;4938607;29;20537;-80
2022/06/10 09:49:19;;;;;;;14.00;9.85;;;14.80;99.90;;;;;;4955572;29;20074;-83
2022/06/10 09:51:54;;;;;;;15.77;10.95;;;14.80;99.90;;;;;;4955828;29;20102;-82
2022/06/10 09:54:40;;;;;;;13.93;11.48;;;14.80;99.90;;;;;;4955933;29;20023;-80
2022/06/10 09:57:40;;;;;;;15.98;11.20;;;14.80;99.90;;;;;;4955610;29;20027;-81
2022/06/10 10:00:31;;;;;;;16.40;12.18;;;14.70;99.90;;;;;;4955902;29;20031;-80
2022/06/10 10:03:18;;;;;;;18.65;12.73;;;14.70;99.90;;;;;;4955483;29;20444;-80
2022/06/10 10:06:07;;;;;;;19.45;12.88;;;14.80;99.90;;;;;;4955725;29;20042;-80
2022/06/10 10:08:36;;;;;;;17.40;12.98;;;14.80;99.90;;;;;;4938062;29;20073;-80
2022/06/10 10:11:16;;;;;;;19.15;13.00;;;14.80;99.90;;;;;;4955557;29;20027;-80
2022/06/10 10:13:57;;;;;;;17.00;12.77;;;14.80;99.90;;;;;;4956302;28;20040;-80
2022/06/10 10:16:38;;;;;;;22.35;14.30;;;14.80;99.90;;;;;;4959488;29;20035;-80
2022/06/10 10:19:34;;;;;;;21.63;14.68;;;14.80;99.90;;;;;;4959487;29;20042;-80
2022/06/10 10:22:38;;;;;;;17.10;13.35;;;14.80;99.90;;;;;;4942033;29;20352;-80
2022/06/10 10:25:11;;;;;;;18.63;12.98;;;14.90;99.90;;;;;;4958982;29;20086;-79
2022/06/10 10:27:39;;;;;;;19.58;14.00;;;14.90;99.90;;;;;;4942140;29;20082;-79
2022/06/10 10:30:16;;;;;;;17.15;12.50;;;14.80;99.90;;;;;;4959241;29;20040;-79
2022/06/10 10:32:47;;;;;;;18.70;12.75;;;14.80;99.90;;;;;;4941911;29;20117;-79
2022/06/10 10:35:25;;;;;;;16.10;13.32;;;14.70;99.90;;;;;;4941986;29;20452;-79
2022/06/10 10:38:00;;;;;;;22.15;14.23;;;14.80;99.90;;;;;;4942052;29;20031;-78
2022/06/10 10:40:42;;;;;;;24.85;14.50;;;14.80;99.90;;;;;;4942232;29;20034;-78
2022/06/10 10:43:30;;;;;;;16.58;12.90;;;14.80;99.90;;;;;;4941792;29;20046;-78
2022/06/10 10:46:03;;;;;;;17.98;13.50;;;14.80;99.90;;;;;;4959182;29;20040;-78
2022/06/10 10:48:36;;;;;;;17.38;13.90;;;14.80;99.90;;;;;;4941448;29;20038;-78
2022/06/10 10:51:10;;;;;;;16.55;12.52;;;14.80;99.90;;;;;;4941792;29;20034;-78
2022/06/10 10:53:48;;;;;;;23.63;15.13;;;14.80;99.90;;;;;;4958776;29;20054;-78
2022/06/10 10:56:15;;;;;;;18.63;13.68;;;14.90;99.90;;;;;;4941505;29;20035;-78
2022/06/10 10:58:51;;;;;;;17.92;12.85;;;14.90;99.90;;;;;;4957489;29;20070;-78
2022/06/10 11:01:43;;;;;;;21.15;14.60;;;14.90;99.90;;;;;;4958959;29;20023;-78
2022/06/10 11:04:11;;;;;;;17.75;13.35;;;14.90;99.90;;;;;;4958682;29;20031;-78
2022/06/10 11:06:37;;;;;;;14.60;12.98;;;14.90;99.90;;;;;;4941411;29;20069;-77
2022/06/10 11:09:20;;;;;;;21.40;15.52;;;14.90;99.90;;;;;;4958645;29;20070;-77
2022/06/10 11:11:46;;;;;;;20.63;14.73;;;15.00;99.90;;;;;;4958699;29;20452;-78
2022/06/10 11:14:22;;;;;;;19.70;14.70;;;15.00;99.90;;;;;;4958389;29;20027;-78
2022/06/10 11:17:09;;;;;;;19.13;14.32;;;15.10;99.90;;;;;;4941435;29;20387;-77
2022/06/10 11:19:35;;;;;;;16.75;13.27;;;15.10;99.90;;;;;;4958153;29;20431;-78
2022/06/10 11:22:04;;;;;;;20.40;14.15;;;15.10;99.90;;;;;;4940961;29;20027;-78
2022/06/10 11:24:42;;;;;;;15.07;11.85;;;15.10;99.90;;;;;;4940811;29;20051;-78
2022/06/10 11:27:38;;;;;;;17.52;12.70;;;15.10;99.90;;;;;;4958032;29;20036;-78
2022/06/10 11:30:13;;;;;;;17.58;13.80;;;15.10;99.90;;;;;;4958318;29;20041;-78
2022/06/10 11:33:02;;;;;;;20.73;14.90;;;15.10;99.90;;;;;;4958326;29;20046;-77
2022/06/10 11:35:38;;;;;;;16.85;13.60;;;15.20;99.90;;;;;;4940948;29;20411;-77
2022/06/10 11:38:21;;;;;;;15.95;12.13;;;15.10;99.90;;;;;;4958082;29;20035;-77
2022/06/10 11:40:46;;;;;;;20.50;14.10;;;15.10;99.90;;;;;;4958150;29;20471;-78
2022/06/10 11:43:35;;;;;;;17.08;12.95;;;15.10;99.90;;;;;;4957972;29;20121;-78
2022/06/10 11:46:21;;;;;;;15.75;14.02;;;15.20;99.90;;;;;;4958084;29;20471;-78
2022/06/10 11:48:59;;;;;;;16.50;13.00;;;15.20;99.90;;;;;;4956568;29;20031;-78
2022/06/10 11:51:41;;;;;;;21.50;13.97;;;15.20;99.90;;;;;;4957665;29;20046;-79
2022/06/10 11:54:36;;;;;;;18.40;13.38;;;15.20;99.90;;;;;;4940375;29;20038;-78
2022/06/10 12:00:32;;;;;;;21.90;15.85;;;15.30;99.90;;;;;;4957445;29;20121;-78
2022/06/10 12:03:21;;;;;;;17.02;13.43;;;15.30;99.90;;;;;;4958155;29;20023;-78
2022/06/10 12:06:17;;;;;;;16.27;12.50;;;15.30;99.90;;;;;;4957651;29;20040;-79
2022/06/10 12:09:02;;;;;;;21.80;15.27;;;15.40;99.90;;;;;;4957384;29;20434;-79
2022/06/10 12:11:39;;;;;;;19.23;13.88;;;15.40;99.90;;;;;;4957206;29;20027;-78
2022/06/10 12:14:20;;;;;;;16.58;14.35;;;15.40;99.90;;;;;;4957704;29;20028;-78
2022/06/10 12:16:55;;;;;;;20.05;13.88;;;15.40;99.90;;;;;;4957181;29;20530;-79
2022/06/10 12:19:30;;;;;;;18.48;13.27;;;15.40;99.90;;;;;;4957352;29;20144;-79
2022/06/10 12:21:55;;;;;;;15.07;12.48;;;15.50;99.90;;;;;;4957216;29;20036;-80
2022/06/10 12:24:21;;;;;;;16.30;13.15;;;15.40;99.90;;;;;;4939910;29;20030;-79
2022/06/10 12:26:51;;;;;;;22.90;15.07;;;15.50;99.90;;;;;;4957275;29;20494;-79
2022/06/10 12:29:55;;;;;;;18.17;13.40;;;15.50;99.90;;;;;;4957284;29;20027;-80
2022/06/10 12:32:37;;;;;;;16.00;13.60;;;15.50;99.90;;;;;;4879048;29;20057;-79
2022/06/10 12:35:23;;;;;;;17.40;13.05;;;15.60;99.90;;;;;;4950106;29;20043;-78
2022/06/10 12:37:54;;;;;;;17.23;12.93;;;15.60;99.90;;;;;;4938615;29;20204;-79
2022/06/10 12:40:52;;;;;;;13.95;12.05;;;15.60;99.90;;;;;;4956982;29;20027;-79
2022/06/10 12:43:29;;;;;;;17.07;12.53;;;15.70;99.90;;;;;;4956955;29;20027;-80
2022/06/10 12:45:58;;;;;;;16.98;12.07;;;15.60;99.90;;;;;;4939771;29;20267;-79
2022/06/10 12:48:30;;;;;;;13.70;12.25;;;15.70;99.90;;;;;;4956684;29;20023;-78
2022/06/10 12:51:05;;;;;;;16.40;11.88;;;15.80;99.90;;;;;;4956625;29;20042;-80
2022/06/10 12:53:52;;;;;;;15.60;11.15;;;15.80;99.90;;;;;;4956505;29;20047;-77
2022/06/10 12:56:31;;;;;;;13.32;11.32;;;15.90;99.90;;;;;;4956725;29;20086;-77
2022/06/10 12:59:19;;;;;;;;;;;16.10;99.90;;;;;;4957340;29;20086;-79
2022/06/10 13:01:46;;;;;;;14.05;11.52;;;16.10;99.90;;;;;;4956572;29;19906;-79
2022/06/10 13:04:55;;;;;;;13.65;10.55;;;16.20;99.90;;;;;;4956637;29;20070;-79
2022/06/10 13:07:37;;;;;;;15.20;11.88;;;16.20;99.90;;;;;;4956048;29;20082;-78
2022/06/10 13:10:28;;;;;;;13.00;10.27;;;16.30;99.90;;;;;;4956451;29;20122;-77
2022/06/10 13:13:08;;;;;;;11.75;10.18;;;16.30;99.90;;;;;;4939114;29;20027;-80
2022/06/10 13:15:34;;;;;;;14.02;10.30;;;16.40;99.90;;;;;;4939042;29;20027;-76
2022/06/10 13:18:33;;;;;;;12.23;9.98;;;16.40;99.90;;;;;;4956277;29;20040;-78
2022/06/10 13:21:15;;;;;;;;;;;16.40;99.90;;;;;;4924099;29;20035;-78